Flight Track Log - Related Links

Times and Time Zones

All times are in EDT time to prevent confusion due to time zone crossing. See the N41FR flight status page for this flight to view local times or setup timezone preferences in your user account.


Time Position Orientation Groundspeed Altitude Reporting Facility
EDT Latitude Longitude Course Direction KTS MPH feet Rate Location/Type
Sun 12:08:47 PM 36.8950 -76.2022 35° Northeast 90 104 400  Level Washington Center
Sun 12:09:54 PM 36.9181 -76.1817 35° Northeast 101 116 1,800 1,087 Climbing Washington Center
Sun 12:10:54 PM 36.9389 -76.1922 338° Northwest 148 170 2,700 1,041 Climbing Washington Center
Sun 12:11:55 PM 36.9492 -76.2364 286° West 123 142 3,900 1,091 Climbing Washington Center
Sun 12:12:55 PM 36.9636 -76.2781 293° West 127 146 4,900 942 Climbing Washington Center
Sun 12:13:56 PM 36.9739 -76.3172 288° West 120 138 5,800 934 Climbing Washington Center
Sun 12:14:57 PM 36.9881 -76.3539 296° West 121 139 6,800 563 Climbing Washington Center
Sun 12:16:04 PM 37.0256 -76.3803 331° Northwest 159 183 7,000 94 Climbing Washington Center
Sun 12:17:05 PM 37.0650 -76.4144 325° Northwest 172 198 7,000  Level Washington Center
Sun 12:17:47 PM 37.0981 -76.4356 333° Northwest 174 200 7,000  Level Washington Center
Sun 12:18:48 PM 37.1356 -76.4672 326° Northwest 168 193 7,000  Level Washington Center
Sun 12:20:50 PM 37.2167 -76.5333 327° Northwest 174 200 7,000  Level Potomac TRACON
Sun 12:21:51 PM 37.2667 -76.5667 332° Northwest 174 200 7,000  Level Potomac TRACON
Sun 12:22:45 PM 37.3000 -76.6000 322° Northwest 175 201 7,000  Level Potomac TRACON
Sun 12:23:51 PM 37.3333 -76.6333 322° Northwest 168 193 7,000  Level Potomac TRACON
Sun 12:24:51 PM 37.3833 -76.6500 345° North 168 193 7,000  Level Potomac TRACON
Sun 12:25:51 PM 37.4167 -76.6833 322° Northwest 187 215 7,000  Level Potomac TRACON
Sun 12:26:51 PM 37.4667 -76.7167 332° Northwest 174 200 7,000  Level Potomac TRACON
Sun 12:27:51 PM 37.5000 -76.7000 22° Northeast 172 198 7,000  Level Potomac TRACON
Sun 12:28:52 PM 37.5500 -76.7000 360° North 160 184 7,000  Level Potomac TRACON
Sun 12:29:52 PM 37.6000 -76.6833 15° North 164 189 7,000 57 Level Potomac TRACON
Sun 12:30:37 PM 37.6303 -76.6694 20° North 166 191 7,100 86 Climbing Washington Center
Sun 12:31:02 PM 37.6450 -76.6619 22° Northeast 165 190 7,100  Level Washington Center
Sun 12:32:09 PM 37.6972 -76.6469 13° North 167 192 7,100  Level Washington Center
Sun 12:33:15 PM 37.7433 -76.6292 17° North 164 189 7,100  Level Washington Center
Sun 12:34:15 PM 37.7872 -76.6139 15° North 162 186 7,100  Level Washington Center
Sun 12:35:16 PM 37.8333 -76.5961 17° North 163 188 7,100 -49 Level Washington Center
Sun 12:36:17 PM 37.8772 -76.5758 20° North 166 191 7,000 -49 Descending Washington Center
Sun 12:37:18 PM 37.9189 -76.5631 14° North 163 188 7,000  Level Washington Center
Sun 12:38:18 PM 37.9631 -76.5425 20° North 162 186 7,000  Level Washington Center
Sun 12:39:20 PM 38.0069 -76.5247 18° North 160 184 7,000  Level Washington Center
Sun 12:40:14 PM 38.0444 -76.5094 18° North 162 186 7,000  Level Washington Center
Sun 12:41:21 PM 38.0906 -76.4836 24° Northeast 161 185 7,000  Level Washington Center
Sun 12:42:22 PM 38.1325 -76.4708 13° North 162 186 7,000  Level Washington Center
Sun 12:43:17 PM 38.1722 -76.4528 20° North 162 186 7,000 -52 Level Washington Center
Sun 12:44:17 PM 38.2161 -76.4375 15° North 163 188 6,900 50 Descending Washington Center
Sun 12:45:18 PM 38.2622 -76.4167 20° North 162 186 7,100 98 Climbing Washington Center
Sun 12:46:19 PM 38.3061 -76.4014 15° North 170 196 7,100  Level Washington Center
Sun 12:47:14 PM 38.3417 -76.3886 16° North 164 189 7,100 -52 Level Washington Center
Sun 12:48:14 PM 38.3894 -76.3758 12° North 158 182 7,000 -48 Descending Washington Center
Sun 12:49:20 PM 38.4356 -76.3578 17° North 159 183 7,000 47 Level Washington Center
Sun 12:50:21 PM 38.4794 -76.3450 13° North 159 183 7,100  Climbing Washington Center
Sun 12:52:43 PM 38.5833 -76.3000 19° North 159 183 7,000 -30 Descending Potomac TRACON
Sun 12:53:43 PM 38.6333 -76.3000 360° North 162 186 7,000  Level Potomac TRACON
Sun 12:54:37 PM 38.6667 -76.2833 21° North 162 186 7,000  Level Potomac TRACON
Sun 12:55:38 PM 38.7167 -76.2667 15° North 160 184 7,000 -347 Level Potomac TRACON
Sun 12:56:38 PM 38.7667 -76.2833 345° North 184 212 6,300 -550 Descending Potomac TRACON
Sun 12:57:38 PM 38.8167 -76.2833 360° North 183 211 5,900 -550 Descending Potomac TRACON
Sun 12:58:38 PM 38.8667 -76.3000 345° North 190 219 5,200 -700 Descending Potomac TRACON
Sun 12:59:38 PM 38.9167 -76.3167 345° North 188 216 4,500 -632 Descending Potomac TRACON
Sun 01:00:32 PM 38.9500 -76.3167 360° North 188 216 4,000 -632 Descending Potomac TRACON
Sun 01:01:32 PM 39.0000 -76.3333 345° North 178 205 3,300 -450 Descending Potomac TRACON
Sun 01:02:32 PM 39.0500 -76.3500 345° North 163 188 3,100 -104 Descending Potomac TRACON
Sun 01:03:27 PM 39.0833 -76.3667 339° North 154 177 3,100 -104 Level Potomac TRACON
Sun 01:04:27 PM 39.1333 -76.3833 346° North 158 182 2,900 -450 Descending Potomac TRACON
Sun 01:05:27 PM 39.1667 -76.4000 339° North 164 189 2,200 -600 Descending Potomac TRACON
Sun 01:06:27 PM 39.2167 -76.4167 346° North 160 184 1,700 -550 Descending Potomac TRACON
Sun 01:07:27 PM 39.2500 -76.4167 360° North 156 180 1,100 -400 Descending Potomac TRACON
Sun 01:08:27 PM 39.2833 -76.4167 360° North 118 136 900 -104 Descending Potomac TRACON
Sun 01:09:22 PM 39.3167 -76.4500 322° Northwest 107 123 900 -100 Level Potomac TRACON
Sun 01:10:27 PM 39.3333 -76.4500 360° North 85 98 700 -300 Descending Potomac TRACON
Sun 01:11:22 PM 39.3333 -76.4333 90° East 93 107 300 -436 Descending Potomac TRACON

Login

Don't have an account? Register now (free) for customized features, flight alerts, and more!